createdAt,value
2018-11-02T00:01:57.021Z,16.23
2018-11-02T00:04:31.288Z,16.23
2018-11-02T00:07:04.789Z,16.22
2018-11-02T00:09:37.602Z,16.22
2018-11-02T00:12:11.487Z,16.18
2018-11-02T00:14:45.287Z,16.18
2018-11-02T00:17:18.856Z,16.18
2018-11-02T00:19:52.840Z,16.18
2018-11-02T00:22:25.632Z,16.19
2018-11-02T00:24:59.123Z,16.20
2018-11-02T00:27:32.770Z,16.18
2018-11-02T00:30:05.624Z,16.16
2018-11-02T00:32:38.415Z,16.15
2018-11-02T00:35:12.610Z,16.15
2018-11-02T00:37:46.038Z,16.15
2018-11-02T00:40:19.794Z,16.15
2018-11-02T00:42:53.484Z,16.15
2018-11-02T00:45:27.286Z,16.15
2018-11-02T00:48:00.802Z,16.14
2018-11-02T00:50:34.521Z,16.14
2018-11-02T00:53:08.584Z,16.14
2018-11-02T00:55:42.283Z,16.11
2018-11-02T00:58:15.731Z,16.11
2018-11-02T01:00:49.353Z,16.11
2018-11-02T01:03:22.968Z,16.11
2018-11-02T01:05:56.609Z,16.11
2018-11-02T01:08:30.289Z,16.11
2018-11-02T01:11:03.769Z,16.11
2018-11-02T01:13:37.250Z,16.11
2018-11-02T01:16:10.407Z,16.10
2018-11-02T01:18:44.384Z,16.10
2018-11-02T01:21:17.977Z,16.11
2018-11-02T01:23:51.633Z,16.10
2018-11-02T01:26:25.708Z,16.12
2018-11-02T01:28:59.659Z,16.15
2018-11-02T01:31:33.327Z,16.15
2018-11-02T01:34:07.566Z,16.15
2018-11-02T01:36:41.357Z,16.15
2018-11-02T01:39:15.017Z,16.16
2018-11-02T01:41:48.589Z,16.15
2018-11-02T01:44:22.459Z,16.14
2018-11-02T01:46:55.788Z,16.15
2018-11-02T01:49:30.057Z,16.16
2018-11-02T01:52:03.553Z,16.16
2018-11-02T01:54:37.056Z,16.15
2018-11-02T01:57:11.287Z,16.16
2018-11-02T01:59:44.770Z,16.13
2018-11-02T02:02:18.476Z,16.14
2018-11-02T02:04:52.272Z,16.14
2018-11-02T02:07:25.786Z,16.15
2018-11-02T02:09:59.541Z,16.15
2018-11-02T02:12:33.502Z,16.15
2018-11-02T02:15:08.279Z,16.16
2018-11-02T02:17:42.052Z,16.16
2018-11-02T02:20:15.871Z,16.15
2018-11-02T02:22:49.598Z,16.14
2018-11-02T02:25:23.325Z,16.14
2018-11-02T02:27:58.372Z,16.15
2018-11-02T02:30:32.377Z,16.14
2018-11-02T02:33:05.837Z,16.14
2018-11-02T02:35:39.610Z,16.12
2018-11-02T02:38:13.270Z,16.12
2018-11-02T02:40:47.374Z,16.13
2018-11-02T02:43:21.411Z,16.14
2018-11-02T02:45:55.057Z,16.15
2018-11-02T02:48:29.380Z,16.12
2018-11-02T02:51:02.859Z,16.11
2018-11-02T02:53:36.535Z,16.12
2018-11-02T02:56:10.580Z,16.09
2018-11-02T02:58:44.273Z,16.10
2018-11-02T03:01:17.808Z,16.09
2018-11-02T03:03:51.242Z,16.08
2018-11-02T03:06:24.085Z,16.09
2018-11-02T03:08:57.613Z,16.10
2018-11-02T03:11:31.283Z,16.09
2018-11-02T03:14:05.291Z,16.09
2018-11-02T03:16:38.790Z,16.09
2018-11-02T03:19:12.508Z,16.05
2018-11-02T03:21:46.524Z,16.05
2018-11-02T03:24:20.269Z,16.09
2018-11-02T03:26:54.368Z,16.11
2018-11-02T03:29:28.296Z,16.12
2018-11-02T03:32:01.819Z,16.13
2018-11-02T03:34:35.571Z,16.11
2018-11-02T03:37:09.319Z,16.11
2018-11-02T03:39:42.768Z,16.10
2018-11-02T03:42:16.557Z,16.13
2018-11-02T03:44:50.290Z,16.13
2018-11-02T03:47:23.793Z,16.13
2018-11-02T03:49:57.518Z,16.15
2018-11-02T03:52:32.278Z,16.15
2018-11-02T03:55:06.348Z,16.15
2018-11-02T03:57:40.434Z,16.13
2018-11-02T04:00:14.459Z,16.11
2018-11-02T04:02:47.798Z,16.10
2018-11-02T04:05:21.786Z,16.08
2018-11-02T04:07:55.607Z,15.95
2018-11-02T04:10:29.273Z,15.95
2018-11-02T04:13:02.802Z,16.05
2018-11-02T04:15:35.445Z,16.04
2018-11-02T04:18:08.567Z,16.03
2018-11-02T04:20:42.291Z,16.06
2018-11-02T04:23:15.805Z,16.06
2018-11-02T04:25:48.765Z,16.06
2018-11-02T04:28:21.420Z,16.07
2018-11-02T04:30:55.345Z,16.07
2018-11-02T04:33:28.797Z,16.05
2018-11-02T04:36:02.497Z,16.03
2018-11-02T04:38:36.291Z,16.03
2018-11-02T04:41:09.782Z,16.03
2018-11-02T04:43:43.601Z,16.03
2018-11-02T04:46:17.077Z,16.03
2018-11-02T04:48:50.585Z,16.04
2018-11-02T04:51:24.272Z,16.03
2018-11-02T04:53:57.789Z,16.02
2018-11-02T04:56:31.581Z,15.93
2018-11-02T04:59:05.380Z,15.93
2018-11-02T05:01:39.443Z,16.05
2018-11-02T05:04:13.052Z,16.04
2018-11-02T05:06:46.656Z,16.04
2018-11-02T05:09:20.267Z,16.07
2018-11-02T05:11:53.778Z,16.05
2018-11-02T05:14:27.545Z,16.01
2018-11-02T05:17:01.287Z,16.01
2018-11-02T05:19:35.495Z,16.04
2018-11-02T05:22:09.474Z,16.03
2018-11-02T05:24:42.800Z,16.03
2018-11-02T05:27:16.680Z,15.99
2018-11-02T05:29:50.289Z,15.99
2018-11-02T05:32:23.809Z,16.04
2018-11-02T05:34:58.273Z,16.01
2018-11-02T05:37:32.287Z,16.01
2018-11-02T05:40:05.811Z,16.00
2018-11-02T05:42:39.532Z,15.95
2018-11-02T05:45:13.278Z,15.95
2018-11-02T05:47:47.384Z,16.00
2018-11-02T05:50:21.065Z,15.99
2018-11-02T05:52:54.596Z,16.00
2018-11-02T05:55:28.292Z,15.97
2018-11-02T05:58:02.525Z,15.96
2018-11-02T06:00:36.459Z,15.99
2018-11-02T06:03:10.064Z,16.02
2018-11-02T06:05:43.605Z,15.99
2018-11-02T06:08:17.556Z,15.97
2018-11-02T06:10:51.291Z,15.99
2018-11-02T06:13:24.848Z,16.02
2018-11-02T06:15:57.456Z,16.02
2018-11-02T06:18:30.253Z,16.02
2018-11-02T06:21:03.822Z,16.01
2018-11-02T06:23:37.604Z,15.97
2018-11-02T06:26:11.368Z,15.97
2018-11-02T06:28:44.811Z,15.96
2018-11-02T06:31:18.444Z,15.93
2018-11-02T06:33:51.813Z,15.93
2018-11-02T06:36:25.514Z,15.97
2018-11-02T06:38:59.346Z,15.97
2018-11-02T06:41:32.723Z,15.94
2018-11-02T06:44:06.367Z,15.96
2018-11-02T06:46:40.400Z,15.95
2018-11-02T06:49:15.392Z,15.96
2018-11-02T06:51:48.782Z,15.96
2018-11-02T06:54:21.587Z,15.94
2018-11-02T06:56:54.385Z,15.96
2018-11-02T06:59:28.120Z,15.96
2018-11-02T07:02:02.396Z,15.99
2018-11-02T07:04:36.412Z,15.97
2018-11-02T07:07:10.314Z,16.00
2018-11-02T07:09:43.756Z,15.99
2018-11-02T07:12:17.539Z,16.01
2018-11-02T07:14:51.597Z,16.01
2018-11-02T07:17:25.304Z,16.02
2018-11-02T07:19:59.103Z,16.02
2018-11-02T07:22:33.292Z,16.04
2018-11-02T07:25:07.316Z,16.03
2018-11-02T07:27:40.824Z,16.03
2018-11-02T07:30:14.753Z,16.01
2018-11-02T07:32:48.480Z,16.01
2018-11-02T07:35:22.616Z,16.04
2018-11-02T07:37:56.745Z,16.05
2018-11-02T07:40:30.771Z,16.04
2018-11-02T07:43:04.565Z,16.02
2018-11-02T07:45:38.284Z,16.02
2018-11-02T07:48:11.819Z,16.09
2018-11-02T07:50:44.531Z,16.11
2018-11-02T07:53:18.070Z,16.15
2018-11-02T07:55:51.791Z,16.16
2018-11-02T07:58:25.502Z,16.13
2018-11-02T08:00:59.362Z,16.13
2018-11-02T08:03:33.447Z,16.22
2018-11-02T08:06:07.068Z,16.22
2018-11-02T08:08:41.069Z,16.22
2018-11-02T08:11:14.655Z,16.21
2018-11-02T08:13:48.311Z,16.20
2018-11-02T08:16:21.776Z,16.20
2018-11-02T08:18:55.601Z,16.23
2018-11-02T08:21:29.300Z,16.23
2018-11-02T08:24:02.909Z,16.22
2018-11-02T08:26:35.419Z,16.30
2018-11-02T08:29:09.290Z,16.34
2018-11-02T08:31:42.829Z,16.33
2018-11-02T08:34:16.592Z,16.35
2018-11-02T08:36:54.054Z,16.35
2018-11-02T08:39:28.279Z,16.33
2018-11-02T08:42:01.754Z,16.32
2018-11-02T08:44:35.886Z,16.33
2018-11-02T08:47:09.553Z,16.35
2018-11-02T08:49:43.054Z,16.34
2018-11-02T08:52:16.839Z,16.35
2018-11-02T08:54:50.785Z,16.29
2018-11-02T08:57:24.459Z,16.36
2018-11-02T08:59:58.310Z,16.36
2018-11-02T09:02:31.879Z,16.40
2018-11-02T09:05:05.857Z,16.46
2018-11-02T09:07:40.294Z,16.52
2018-11-02T09:10:14.584Z,16.52
2018-11-02T09:12:48.297Z,16.54
2018-11-02T09:15:21.804Z,16.56
2018-11-02T09:17:56.332Z,16.57
2018-11-02T09:20:30.068Z,16.57
2018-11-02T09:23:03.629Z,16.64
2018-11-02T09:25:37.085Z,16.68
2018-11-02T09:28:10.661Z,16.69
2018-11-02T09:30:44.084Z,16.70
2018-11-02T09:33:17.575Z,16.70
2018-11-02T09:35:51.302Z,16.72
2018-11-02T09:38:25.497Z,16.72
2018-11-02T09:40:58.807Z,16.73
2018-11-02T09:43:32.567Z,16.70
2018-11-02T09:46:06.291Z,16.70
2018-11-02T09:48:39.756Z,16.71
2018-11-02T09:51:13.424Z,16.72
2018-11-02T09:53:46.789Z,16.71
2018-11-02T09:56:20.601Z,16.70
2018-11-02T09:58:54.286Z,16.70
2018-11-02T10:01:27.827Z,16.70
2018-11-02T10:04:01.568Z,16.68
2018-11-02T10:06:35.348Z,16.68
2018-11-02T10:09:12.978Z,16.76
2018-11-02T10:11:46.516Z,16.81
2018-11-02T10:14:20.292Z,16.81
2018-11-02T10:16:53.846Z,16.92
2018-11-02T10:19:28.681Z,16.94
2018-11-02T10:22:02.289Z,16.94
2018-11-02T10:24:36.299Z,16.95
2018-11-02T10:27:10.390Z,16.95
2018-11-02T10:29:44.340Z,16.96
2018-11-02T10:32:17.791Z,16.96
2018-11-02T10:34:51.599Z,16.99
2018-11-02T10:37:25.344Z,16.99
2018-11-02T10:39:58.801Z,17.09
2018-11-02T10:42:32.521Z,17.03
2018-11-02T10:45:06.619Z,17.03
2018-11-02T10:47:40.292Z,17.13
2018-11-02T10:50:13.821Z,17.10
2018-11-02T10:52:47.554Z,17.11
2018-11-02T10:55:21.279Z,17.11
2018-11-02T10:57:54.824Z,17.15
2018-11-02T11:00:45.938Z,17.17
2018-11-02T11:03:18.339Z,17.17
2018-11-02T11:05:51.839Z,17.29
2018-11-02T11:08:25.600Z,17.36
2018-11-02T11:10:59.310Z,17.36
2018-11-02T11:13:33.058Z,17.48
2018-11-02T11:16:06.387Z,17.45
2018-11-02T11:18:40.596Z,17.47
2018-11-02T11:21:14.505Z,17.46
2018-11-02T11:23:47.979Z,17.45
2018-11-02T11:26:21.556Z,17.40
2018-11-02T11:28:55.600Z,17.39
2018-11-02T11:31:29.295Z,17.46
2018-11-02T11:34:02.757Z,17.52
2018-11-02T11:36:36.457Z,17.55
2018-11-02T11:39:15.300Z,17.61
2018-11-02T11:41:48.772Z,17.66
2018-11-02T11:44:22.519Z,17.66
2018-11-02T11:46:56.297Z,17.66
2018-11-02T11:49:29.742Z,17.71
2018-11-02T11:52:03.405Z,17.67
2018-11-02T11:54:38.154Z,17.54
2018-11-02T11:57:12.367Z,17.58
2018-11-02T11:59:46.295Z,17.59
2018-11-02T12:02:20.481Z,17.59
2018-11-02T12:04:54.423Z,17.68
2018-11-02T12:07:28.300Z,17.79
2018-11-02T12:10:01.885Z,17.83
2018-11-02T12:12:35.618Z,17.62
2018-11-02T12:15:11.286Z,17.62
2018-11-02T12:17:45.596Z,17.63
2018-11-02T12:20:22.397Z,17.53
2018-11-02T12:22:58.740Z,17.48
2018-11-02T12:25:32.287Z,17.50
2018-11-02T12:28:05.808Z,17.45
2018-11-02T12:30:38.625Z,17.41
2018-11-02T12:33:11.443Z,17.39
2018-11-02T12:35:45.064Z,17.38
2018-11-02T12:38:18.740Z,17.42
2018-11-02T12:40:52.385Z,17.42
2018-11-02T12:43:26.306Z,17.43
2018-11-02T12:45:59.783Z,17.45
2018-11-02T12:48:33.757Z,17.65
2018-11-02T12:51:07.305Z,17.65
2018-11-02T12:53:41.554Z,17.73
2018-11-02T12:56:15.282Z,17.66
2018-11-02T12:58:49.359Z,17.64
2018-11-02T13:01:22.884Z,17.68
2018-11-02T13:03:55.259Z,17.86
2018-11-02T13:06:28.778Z,18.08
2018-11-02T13:09:02.993Z,18.27
2018-11-02T13:11:36.779Z,18.32
2018-11-02T13:14:10.553Z,18.05
2018-11-02T13:16:44.381Z,18.05
2018-11-02T13:19:17.795Z,17.91
2018-11-02T13:21:51.656Z,17.81
2018-11-02T13:24:25.286Z,17.81
2018-11-02T13:26:58.788Z,17.81
2018-11-02T13:29:32.546Z,17.87
2018-11-02T13:32:06.291Z,17.87
2018-11-02T13:34:39.700Z,17.92
2018-11-02T13:37:13.674Z,18.10
2018-11-02T13:39:47.314Z,18.45
2018-11-02T13:42:21.175Z,18.49
2018-11-02T13:44:55.282Z,18.43
2018-11-02T13:47:28.760Z,18.43
2018-11-02T13:50:02.362Z,18.29
2018-11-02T13:52:35.819Z,18.29
2018-11-02T13:55:10.950Z,18.05
2018-11-02T13:57:45.272Z,18.05
2018-11-02T14:00:19.827Z,18.12
2018-11-02T14:02:53.536Z,18.11
2018-11-02T14:05:27.062Z,18.11
2018-11-02T14:08:00.628Z,18.11
2018-11-02T14:10:35.358Z,18.12
2018-11-02T14:13:09.725Z,18.09
2018-11-02T14:15:43.548Z,18.02
2018-11-02T14:18:17.333Z,17.93
2018-11-02T14:20:50.756Z,17.88
2018-11-02T14:23:24.513Z,17.71
2018-11-02T14:25:58.087Z,17.71
2018-11-02T14:28:31.614Z,17.71
2018-11-02T14:31:05.049Z,17.72
2018-11-02T14:33:38.596Z,17.71
2018-11-02T14:36:12.337Z,17.70
2018-11-02T14:38:46.499Z,17.75
2018-11-02T14:41:20.487Z,17.71
2018-11-02T14:43:54.058Z,17.70
2018-11-02T14:46:27.608Z,17.65
2018-11-02T14:49:01.292Z,17.67
2018-11-02T14:51:35.004Z,17.66
2018-11-02T14:54:08.605Z,17.66
2018-11-02T14:56:42.286Z,17.67
2018-11-02T14:59:15.805Z,17.64
2018-11-02T15:01:49.520Z,17.58
2018-11-02T15:04:22.989Z,17.58
2018-11-02T15:06:57.664Z,17.61
2018-11-02T15:09:31.361Z,17.60
2018-11-02T15:12:05.292Z,17.59
2018-11-02T15:14:38.805Z,17.58
2018-11-02T15:17:13.054Z,17.46
2018-11-02T15:19:46.982Z,17.46
2018-11-02T15:22:20.570Z,17.49
2018-11-02T15:24:54.074Z,17.48
2018-11-02T15:27:27.641Z,17.47
2018-11-02T15:30:02.004Z,17.45
2018-11-02T15:32:36.056Z,17.44
2018-11-02T15:35:11.271Z,17.44
2018-11-02T15:37:46.279Z,17.43
2018-11-02T15:40:19.840Z,17.41
2018-11-02T15:42:52.625Z,17.39
2018-11-02T15:45:26.382Z,17.38
2018-11-02T15:48:00.060Z,17.37
2018-11-02T15:50:33.607Z,17.35
2018-11-02T15:53:07.328Z,17.34
2018-11-02T15:55:40.813Z,17.33
2018-11-02T15:58:13.606Z,17.32
2018-11-02T16:00:46.464Z,17.32
2018-11-02T16:03:20.057Z,17.31
2018-11-02T16:05:54.336Z,17.30
2018-11-02T16:08:27.791Z,17.32
2018-11-02T16:11:01.535Z,17.28
2018-11-02T16:13:35.344Z,17.28
2018-11-02T16:16:09.590Z,17.30
2018-11-02T16:18:43.348Z,17.28
2018-11-02T16:21:17.396Z,17.27
2018-11-02T16:23:51.281Z,17.26
2018-11-02T16:26:24.746Z,17.26
2018-11-02T16:28:58.948Z,17.26
2018-11-02T16:31:32.610Z,17.26
2018-11-02T16:34:06.366Z,17.26
2018-11-02T16:36:39.764Z,17.26
2018-11-02T16:39:17.283Z,17.19
2018-11-02T16:41:50.776Z,17.19
2018-11-02T16:44:23.708Z,17.22
2018-11-02T16:46:57.513Z,17.23
2018-11-02T16:49:31.626Z,17.23
2018-11-02T16:52:05.483Z,17.24
2018-11-02T16:54:38.906Z,17.24
2018-11-02T16:57:12.539Z,17.19
2018-11-02T16:59:46.273Z,17.19
2018-11-02T17:02:20.008Z,17.23
2018-11-02T17:04:53.653Z,17.22
2018-11-02T17:07:27.485Z,17.19
2018-11-02T17:10:01.519Z,17.17
2018-11-02T17:12:35.275Z,17.16
2018-11-02T17:15:09.563Z,17.15
2018-11-02T17:17:43.281Z,17.14
2018-11-02T17:20:18.332Z,17.14
2018-11-02T17:22:52.280Z,17.14
2018-11-02T17:25:25.745Z,17.13
2018-11-02T17:27:59.572Z,17.10
2018-11-02T17:30:33.663Z,17.10
2018-11-02T19:51:47.332Z,18.76
2018-11-02T19:54:21.298Z,18.85
2018-11-02T19:56:56.623Z,19.01
2018-11-02T20:02:09.008Z,19.17
2018-11-02T20:04:44.814Z,19.17
2018-11-02T20:07:22.077Z,19.22
2018-11-02T20:09:59.041Z,19.21
2018-11-02T20:12:36.005Z,19.18
2018-11-02T20:15:14.997Z,19.31
2018-11-02T20:17:52.069Z,19.27
2018-11-02T20:20:27.999Z,19.27
2018-11-02T20:23:05.067Z,19.22
2018-11-02T20:25:42.163Z,19.25
2018-11-02T20:28:20.679Z,19.25
2018-11-02T20:30:55.904Z,19.16
2018-11-02T20:33:33.059Z,19.07
2018-11-02T20:36:10.991Z,19.59
2018-11-02T20:38:49.737Z,20.14
2018-11-02T20:41:27.046Z,20.14
2018-11-02T20:44:04.038Z,20.60
2018-11-02T20:46:40.577Z,20.65
2018-11-02T20:49:17.996Z,20.65
2018-11-02T20:51:55.063Z,20.78
2018-11-02T20:54:32.074Z,20.79
2018-11-02T20:57:09.667Z,20.75
2018-11-02T20:59:44.929Z,20.75
2018-11-02T21:02:22.060Z,20.79
2018-11-02T21:04:59.072Z,20.77
2018-11-02T21:07:36.064Z,20.75
2018-11-02T21:10:15.140Z,20.73
2018-11-02T21:12:53.063Z,20.73
2018-11-02T21:15:30.056Z,20.71
2018-11-02T21:18:07.053Z,20.69
2018-11-02T21:20:44.808Z,20.64
2018-11-02T21:23:22.519Z,20.63
2018-11-02T21:26:00.075Z,20.63
2018-11-02T21:28:37.085Z,20.62
2018-11-02T21:31:16.672Z,20.58
2018-11-02T21:33:52.054Z,20.58
2018-11-02T21:36:29.073Z,20.63
2018-11-02T21:39:07.047Z,20.69
2018-11-02T21:41:44.657Z,20.68
2018-11-02T21:44:21.975Z,20.68
2018-11-02T21:46:57.888Z,20.67
2018-11-02T21:49:33.916Z,20.68
2018-11-02T21:52:11.085Z,20.69
2018-11-02T21:54:48.066Z,20.64
2018-11-02T21:57:26.667Z,20.68
2018-11-02T22:00:01.938Z,20.68
2018-11-02T22:02:39.063Z,20.67
2018-11-02T22:05:16.997Z,20.66
2018-11-02T22:07:55.041Z,20.60
2018-11-02T22:10:31.982Z,20.63
2018-11-02T22:13:08.986Z,20.61
2018-11-02T22:15:46.040Z,20.60
2018-11-02T22:18:23.012Z,20.60
2018-11-02T22:21:00.691Z,20.59
2018-11-02T22:24:33.596Z,20.63
2018-11-02T22:27:07.607Z,20.57
2018-11-02T22:29:41.301Z,20.56
2018-11-02T22:32:14.729Z,20.55
2018-11-02T22:34:48.528Z,20.54
2018-11-02T22:37:21.957Z,20.54
2018-11-02T22:39:55.785Z,20.53
2018-11-02T22:42:30.038Z,20.45
2018-11-02T22:45:04.285Z,20.45
2018-11-02T22:47:37.719Z,20.49
2018-11-02T22:50:12.274Z,20.47
2018-11-02T22:52:45.713Z,20.47
2018-11-02T22:55:19.382Z,20.46
2018-11-02T22:57:53.369Z,20.46
2018-11-02T23:00:26.836Z,20.44
2018-11-02T23:03:00.541Z,20.39
2018-11-02T23:05:34.338Z,20.39
2018-11-02T23:08:08.284Z,20.42
2018-11-02T23:10:41.740Z,20.41
2018-11-02T23:13:14.937Z,20.41
2018-11-02T23:15:47.621Z,20.40
2018-11-02T23:18:21.544Z,20.41
2018-11-02T23:20:55.141Z,20.41
2018-11-02T23:23:28.790Z,20.39
2018-11-02T23:26:02.504Z,20.39
2018-11-02T23:28:36.060Z,20.39
2018-11-02T23:31:09.612Z,20.40
2018-11-02T23:33:43.287Z,20.40
2018-11-02T23:36:16.723Z,20.41
2018-11-02T23:38:50.509Z,20.41
2018-11-02T23:41:24.057Z,20.41
2018-11-02T23:43:57.660Z,20.41
2018-11-02T23:46:31.287Z,20.40
2018-11-02T23:49:04.752Z,20.40
2018-11-02T23:51:38.775Z,20.40
2018-11-02T23:54:12.381Z,20.36
2018-11-02T23:56:45.807Z,20.36
2018-11-02T23:59:19.485Z,20.40
